Список аэропортов
Фактическая погода:

Число: 26
Время: 21:00
Температура: +22.7°C
Ветер: восточный 3 м/с
Видимость: 10 км
Давление: 764 мм рт. ст.
1018.6 гПа (-0.5)

ясно
Осадки за 12 часов: 0 мм
Время (МСК)Темп. СВетерВлажностьДавлениеОблачностьОсадки
21:00+20СВ, 1 м/с78%1019 гПаясно
22:00+19СВ, 1 м/с83%1019 гПаясно
23:00+18В, 1 м/с84%1019 гПаясно
27 июня
00:00+17В, 2 м/с85%1018 гПаясно
01:00+16В, 2 м/с84%1018 гПаясно
02:00+16В, 2 м/с85%1018 гПаясно
03:00+15В, 2 м/с86%1018 гПаясно
04:00+14В, 2 м/с90%1017 гПаясно
05:00+14В, 3 м/с93%1017 гПаясно
06:00+14В, 2 м/с90%1017 гПаясно
07:00+17В, 2 м/с85%1016 гПаясно
08:00+21СВ, 2 м/с73%1016 гПаясно
09:00+23С, 3 м/с65%1015 гПаясно
10:00+25С, 3 м/с58%1015 гПаясно
11:00+26С, 3 м/с51%1014 гПаясно
12:00+27С, 3 м/с47%1014 гПаясно
13:00+27СЗ, 3 м/с45%1014 гПаясно
14:00+27СЗ, 3 м/с44%1013 гПаясно
15:00+28СЗ, 3 м/с43%1012 гПаясно
16:00+28З, 2 м/с42%1011 гПаясно
17:00+27З, 3 м/с44%1010 гПаясно
18:00+26ЮЗ, 4 м/с48%1010 гПаясно
19:00+25ЮЗ, 4 м/с47%1010 гПаясно
20:00+23ЮЗ, 3 м/с57%1009 гПаясно
21:00+20Ю, 2 м/с71%1009 гПаясно
22:00+19ЮВ, 3 м/с79%1009 гПаясно
23:00+18ЮВ, 2 м/с86%1009 гПаясно
28 июня
00:00+17ЮВ, 3 м/с87%1008 гПаясно
01:00+18ЮВ, 4 м/с82%1008 гПаясно
02:00+18ЮВ, 4 м/с82%1007 гПамалооблачно
03:00+18ЮВ, 4 м/с80%1006 гПамалооблачно
04:00+18Ю, 4 м/с76%1005 гПамалооблачно
05:00+18Ю, 4 м/с79%1005 гПаясно
06:00+19Ю, 5 м/с80%1005 гПаоблачно
07:00+20Ю, 5 м/с83%1004 гПаоблачнодождь
08:00+20Ю, 4 м/с88%1004 гПаоблачнодождь
09:00+21СЗ, 3 м/с93%1004 гПаоблачнодождь
10:00+22СЗ, 4 м/с88%1004 гПаоблачносл. дождь
11:00+24СЗ, 5 м/с77%1005 гПас прояснениями
12:00+24СЗ, 5 м/с67%1005 гПамалооблачно
13:00+24СЗ, 6 м/с63%1005 гПамалооблачно
14:00+24СЗ, 6 м/с60%1005 гПамалооблачно
15:00+24СЗ, 6 м/с58%1005 гПамалооблачно
16:00+23СЗ, 6 м/с56%1005 гПаясно
17:00+23СЗ, 5 м/с56%1006 гПамалооблачно
18:00+23З, 5 м/с51%1006 гПамалооблачно
19:00+22З, 4 м/с56%1006 гПамалооблачно
20:00+21З, 3 м/с63%1006 гПамалооблачно
21:00+19З, 2 м/с72%1007 гПаясно